| time (UTC) | temp C | wind direction | speed KPH | gust KPH | rain 1hr cm | rain 24hr cm | rain mn cm | humidity % | barometer mb |
| 20260503195010 | 24 | 279 | 6.4 | 12.9 | 0.00 | 0.00 | 0.00 | 50 | 1013.4 |
| 20260503194522 | 24 | 281 | 6.4 | 12.9 | 0.00 | 0.00 | 0.00 | 53 | 1013.5 |
| 20260503194009 | 24 | 230 | 6.4 | 11.3 | 0.00 | 0.00 | 0.00 | 51 | 1013.6 |
| 20260503193508 | 24 | 240 | 3.2 | 14.5 | 0.00 | 0.00 | 0.00 | 52 | 1013.6 |
| 20260503193032 | 24 | 315 | 6.4 | 16.1 | 0.00 | 0.00 | 0.00 | 56 | 1013.8 |
| 20260503192507 | 23 | 302 | 3.2 | 16.1 | 0.00 | 0.00 | 0.00 | 55 | 1013.8 |
| 20260503192011 | 23 | 292 | 4.8 | 16.1 | 0.00 | 0.00 | 0.00 | 53 | 1013.9 |
| 20260503191526 | 23 | 190 | 3.2 | 16.1 | 0.00 | 0.00 | 0.00 | 52 | 1013.9 |
| 20260503191004 | 23 | 257 | 8.0 | 16.1 | 0.00 | 0.00 | 0.00 | 56 | 1013.9 |
| 20260503190506 | 23 | 244 | 6.4 | 14.5 | 0.00 | 0.00 | 0.00 | 56 | 1014.0 |
| 20260503190014 | 23 | 275 | 8.0 | 14.5 | 0.00 | 0.00 | 0.00 | 55 | 1014.0 |
| 20260503185506 | 23 | 256 | 3.2 | 11.3 | 0.00 | 0.00 | 0.00 | 55 | 1014.0 |
| 20260503185008 | 23 | 254 | 1.6 | 12.9 | 0.00 | 0.00 | 0.00 | 56 | 1014.1 |
| 20260503184520 | 23 | 288 | 6.4 | 12.9 | 0.00 | 0.00 | 0.00 | 55 | 1014.2 |
| 20260503184007 | 23 | 275 | 6.4 | 12.9 | 0.00 | 0.00 | 0.00 | 56 | 1014.2 |
| 20260503183509 | 22 | 273 | 3.2 | 11.3 | 0.00 | 0.00 | 0.00 | 59 | 1014.3 |
| 20260503183026 | 22 | 254 | 3.2 | 11.3 | 0.00 | 0.00 | 0.00 | 58 | 1014.3 |
| 20260503182507 | 22 | 256 | 6.4 | 16.1 | 0.00 | 0.00 | 0.00 | 58 | 1014.4 |
| 20260503182015 | 22 | 320 | 4.8 | 16.1 | 0.00 | 0.00 | 0.00 | 59 | 1014.4 |
| 20260503181524 | 22 | 321 | 3.2 | 9.7 | 0.00 | 0.00 | 0.00 | 59 | 1014.4 |
| 20260503181007 | 22 | 232 | 3.2 | 12.9 | 0.00 | 0.00 | 0.00 | 59 | 1014.5 |
| 20260503180510 | 21 | 215 | 4.8 | 12.9 | 0.00 | 0.00 | 0.00 | 59 | 1014.6 |
| 20260503180043 | 21 | 246 | 4.8 | 12.9 | 0.00 | 0.00 | 0.00 | 61 | 1014.6 |
| 20260503175506 | 21 | 218 | 6.4 | 12.9 | 0.00 | 0.00 | 0.00 | 60 | 1014.7 |
| 20260503175003 | 21 | 301 | 4.8 | 8.0 | 0.00 | 0.00 | 0.00 | 61 | 1014.7 |
| 20260503174524 | 21 | 221 | 3.2 | 8.0 | 0.00 | 0.00 | 0.00 | 61 | 1014.7 |
| 20260503174007 | 21 | 216 | 1.6 | 9.7 | 0.00 | 0.00 | 0.00 | 62 | 1014.7 |
| 20260503173509 | 21 | 282 | 4.8 | 11.3 | 0.00 | 0.00 | 0.00 | 63 | 1014.7 |
| 20260503173034 | 21 | 321 | 4.8 | 11.3 | 0.00 | 0.00 | 0.00 | 62 | 1014.8 |
| 20260503172509 | 20 | 306 | 4.8 | 12.9 | 0.00 | 0.00 | 0.00 | 63 | 1014.9 |
| 20260503172007 | 20 | 299 | 6.4 | 12.9 | 0.00 | 0.00 | 0.00 | 62 | 1014.9 |
| 20260503171524 | 20 | 238 | 3.2 | 8.0 | 0.00 | 0.00 | 0.00 | 64 | 1014.9 |
| 20260503171006 | 20 | 336 | 1.6 | 9.7 | 0.00 | 0.00 | 0.00 | 64 | 1014.9 |
| 20260503170506 | 20 | 267 | 1.6 | 9.7 | 0.00 | 0.00 | 0.00 | 64 | 1014.9 |
| 20260503151002 | 11 | 241 | 1.6 | 3.2 | 0.00 | 0.00 | 0.00 | 92 | 1015.3 |
| 20260503150507 | 11 | 286 | 0.0 | 3.2 | 0.00 | 0.00 | 0.00 | 92 | 1015.3 |
| 20260503131007 | 8 | 17 | 0.0 | 1.6 | 0.00 | 0.00 | 0.00 | 89 | 1014.9 |
| 20260503130507 | 8 | 17 | 0.0 | 3.2 | 0.00 | 0.00 | 0.00 | 89 | 1014.9 |
| 20260503110510 | 10 | 352 | 0.0 | 3.2 | 0.00 | 0.00 | 0.00 | 87 | 1015.2 |
| 20260503090504 | 11 | 360 | 0.0 | 3.2 | 0.00 | 0.00 | 0.00 | 84 | 1015.4 |
| 20260503081537 | 12 | 13 | 0.0 | 1.6 | 0.00 | 0.00 | 0.00 | 82 | 1015.5 |
| 20260503081002 | 12 | 16 | 0.0 | 3.2 | 0.00 | 0.00 | 0.00 | 82 | 1015.4 |
| 20260503080502 | 12 | 16 | 0.0 | 3.2 | 0.00 | 0.00 | 0.00 | 82 | 1015.4 |
| 20260503072505 | 12 | 9 | 0.0 | 3.2 | 0.00 | 0.00 | 0.00 | 79 | 1015.2 |
| 20260503072002 | 13 | 9 | 0.0 | 3.2 | 0.00 | 0.00 | 0.00 | 78 | 1015.1 |
| 20260503071505 | 13 | 22 | 0.0 | 3.2 | 0.00 | 0.00 | 0.00 | 78 | 1015.2 |
| 20260503071003 | 13 | 23 | 0.0 | 3.2 | 0.00 | 0.00 | 0.00 | 77 | 1015.2 |
| 20260503070502 | 13 | 311 | 0.0 | 3.2 | 0.00 | 0.00 | 0.00 | 77 | 1015.1 |
| 20260503055003 | 15 | 295 | 0.0 | 3.2 | 0.00 | 0.00 | 0.00 | 73 | 1015.0 |
| 20260503054512 | 15 | 295 | 0.0 | 3.2 | 0.00 | 0.00 | 0.00 | 72 | 1015.0 |
| 20260503054004 | 15 | 295 | 0.0 | 1.6 | 0.00 | 0.00 | 0.00 | 71 | 1015.0 |
| 20260503053504 | 15 | 295 | 0.0 | 1.6 | 0.00 | 0.00 | 0.00 | 70 | 1015.0 |
| 20260503053008 | 15 | 295 | 0.0 | 1.6 | 0.00 | 0.00 | 0.00 | 69 | 1015.0 |
| 20260503052503 | 16 | 295 | 0.0 | 3.2 | 0.00 | 0.00 | 0.00 | 68 | 1015.1 |
| 20260503052004 | 16 | 295 | 0.0 | 3.2 | 0.00 | 0.00 | 0.00 | 67 | 1015.0 |
| 20260503051515 | 16 | 295 | 0.0 | 3.2 | 0.00 | 0.00 | 0.00 | 66 | 1015.0 |
| 20260503051002 | 16 | 295 | 0.0 | 3.2 | 0.00 | 0.00 | 0.00 | 65 | 1015.0 |
| 20260503050503 | 16 | 289 | 0.0 | 3.2 | 0.00 | 0.00 | 0.00 | 64 | 1015.0 |
| 20260503050009 | 16 | 315 | 0.0 | 0.0 | 0.00 | 0.00 | 0.00 | 63 | 1014.9 |
| 20260503045506 | 16 | 315 | 0.0 | 3.2 | 0.00 | 0.00 | 0.00 | 63 | 1014.8 |
| 20260503045004 | 16 | 315 | 0.0 | 3.2 | 0.00 | 0.00 | 0.00 | 63 | 1014.7 |
| 20260503044509 | 17 | 315 | 0.0 | 3.2 | 0.00 | 0.00 | 0.00 | 62 | 1014.7 |
| 20260503044003 | 17 | 315 | 0.0 | 3.2 | 0.00 | 0.00 | 0.00 | 62 | 1014.6 |
| 20260503043503 | 17 | 303 | 0.0 | 0.0 | 0.00 | 0.00 | 0.00 | 61 | 1014.6 |
| 20260503043006 | 17 | 303 | 0.0 | 0.0 | 0.00 | 0.00 | 0.00 | 61 | 1014.5 |
| 20260503042504 | 17 | 303 | 0.0 | 3.2 | 0.00 | 0.00 | 0.00 | 61 | 1014.5 |
| 20260503042003 | 17 | 303 | 0.0 | 3.2 | 0.00 | 0.00 | 0.00 | 60 | 1014.4 |
| 20260503041508 | 17 | 303 | 0.0 | 3.2 | 0.00 | 0.00 | 0.00 | 60 | 1014.4 |
| 20260503041006 | 17 | 304 | 0.0 | 3.2 | 0.00 | 0.00 | 0.00 | 59 | 1014.3 |
| 20260503040505 | 17 | 295 | 1.6 | 3.2 | 0.00 | 0.00 | 0.00 | 59 | 1014.3 |
| 20260503040008 | 18 | 325 | 0.0 | 3.2 | 0.00 | 0.00 | 0.00 | 58 | 1014.1 |
| 20260503035504 | 18 | 332 | 1.6 | 3.2 | 0.00 | 0.00 | 0.00 | 58 | 1014.1 |
| 20260503035005 | 18 | 19 | 1.6 | 3.2 | 0.00 | 0.00 | 0.00 | 58 | 1014.0 |
| 20260503034512 | 18 | 290 | 0.0 | 3.2 | 0.00 | 0.00 | 0.00 | 57 | 1013.9 |
| 20260503034003 | 18 | 326 | 0.0 | 3.2 | 0.00 | 0.00 | 0.00 | 57 | 1013.9 |
| 20260503033505 | 18 | 298 | 0.0 | 6.4 | 0.00 | 0.00 | 0.00 | 56 | 1013.9 |
| 20260503033022 | 18 | 304 | 0.0 | 8.0 | 0.00 | 0.00 | 0.00 | 56 | 1013.9 |
| 20260503032503 | 18 | 243 | 3.2 | 8.0 | 0.00 | 0.00 | 0.00 | 55 | 1013.8 |
| 20260503032002 | 19 | 274 | 1.6 | 8.0 | 0.00 | 0.00 | 0.00 | 55 | 1013.8 |
| 20260503031513 | 19 | 244 | 3.2 | 8.0 | 0.00 | 0.00 | 0.00 | 55 | 1013.8 |
| 20260503031003 | 19 | 257 | 1.6 | 6.4 | 0.00 | 0.00 | 0.00 | 55 | 1013.7 |
| 20260503030502 | 20 | 267 | 3.2 | 9.7 | 0.00 | 0.00 | 0.00 | 54 | 1013.7 |
| 20260503030022 | 20 | 246 | 1.6 | 9.7 | 0.00 | 0.00 | 0.00 | 54 | 1013.7 |
| 20260503025504 | 20 | 231 | 1.6 | 6.4 | 0.00 | 0.00 | 0.00 | 54 | 1013.7 |
| 20260503025003 | 20 | 265 | 1.6 | 8.0 | 0.00 | 0.00 | 0.00 | 54 | 1013.6 |
| 20260503024510 | 20 | 275 | 3.2 | 9.7 | 0.00 | 0.00 | 0.00 | 53 | 1013.6 |
| 20260503024004 | 20 | 293 | 3.2 | 9.7 | 0.00 | 0.00 | 0.00 | 53 | 1013.6 |
| 20260503023504 | 20 | 284 | 1.6 | 8.0 | 0.00 | 0.00 | 0.00 | 52 | 1013.5 |
| 20260503023014 | 20 | 288 | 3.2 | 16.1 | 0.00 | 0.00 | 0.00 | 52 | 1013.5 |
| 20260503022504 | 20 | 295 | 6.4 | 16.1 | 0.00 | 0.00 | 0.00 | 52 | 1013.5 |
| 20260503022005 | 21 | 267 | 4.8 | 11.3 | 0.00 | 0.00 | 0.00 | 53 | 1013.4 |
| 20260503021512 | 21 | 261 | 4.8 | 16.1 | 0.00 | 0.00 | 0.00 | 53 | 1013.4 |
| 20260503021006 | 21 | 266 | 8.0 | 16.1 | 0.00 | 0.00 | 0.00 | 53 | 1013.4 |
| 20260503020503 | 21 | 194 | 8.0 | 11.3 | 0.00 | 0.00 | 0.00 | 53 | 1013.4 |
| 20260503020016 | 21 | 290 | 1.6 | 9.7 | 0.00 | 0.00 | 0.00 | 54 | 1013.4 |
| 20260503015504 | 21 | 291 | 4.8 | 11.3 | 0.00 | 0.00 | 0.00 | 55 | 1013.4 |
| 20260503015007 | 21 | 290 | 4.8 | 11.3 | 0.00 | 0.00 | 0.00 | 54 | 1013.4 |
| 20260503014512 | 21 | 277 | 4.8 | 12.9 | 0.00 | 0.00 | 0.00 | 55 | 1013.5 |
| 20260503014006 | 21 | 281 | 6.4 | 16.1 | 0.00 | 0.00 | 0.00 | 55 | 1013.6 |
| 20260503013506 | 21 | 209 | 3.2 | 16.1 | 0.00 | 0.00 | 0.00 | 54 | 1013.6 |
| 20260503013010 | 21 | 269 | 4.8 | 14.5 | 0.00 | 0.00 | 0.00 | 55 | 1013.6 |
| 20260503012506 | 21 | 267 | 3.2 | 11.3 | 0.00 | 0.00 | 0.00 | 55 | 1013.7 |
| 20260503012006 | 21 | 277 | 6.4 | 12.9 | 0.00 | 0.00 | 0.00 | 55 | 1013.6 |
| 20260503011513 | 21 | 292 | 4.8 | 19.3 | 0.00 | 0.00 | 0.00 | 55 | 1013.7 |
| 20260503011008 | 21 | 238 | 6.4 | 19.3 | 0.00 | 0.00 | 0.00 | 54 | 1013.7 |
| 20260503010509 | 21 | 265 | 4.8 | 14.5 | 0.00 | 0.00 | 0.00 | 54 | 1013.7 |
| 20260503010019 | 21 | 322 | 6.4 | 16.1 | 0.00 | 0.00 | 0.00 | 54 | 1013.7 |
| 20260503005506 | 21 | 275 | 8.0 | 16.1 | 0.00 | 0.00 | 0.00 | 54 | 1013.7 |
| 20260503005007 | 21 | 299 | 8.0 | 16.1 | 0.00 | 0.00 | 0.00 | 55 | 1013.7 |
| 20260503004519 | 21 | 236 | 6.4 | 16.1 | 0.00 | 0.00 | 0.00 | 54 | 1013.8 |
| 20260503004006 | 22 | 272 | 4.8 | 16.1 | 0.00 | 0.00 | 0.00 | 53 | 1013.7 |
| 20260503003505 | 22 | 267 | 3.2 | 17.7 | 0.00 | 0.00 | 0.00 | 53 | 1013.7 |
| 20260503003014 | 22 | 268 | 9.7 | 22.5 | 0.00 | 0.00 | 0.00 | 52 | 1013.8 |
| 20260503002506 | 22 | 322 | 3.2 | 22.5 | 0.00 | 0.00 | 0.00 | 53 | 1013.8 |
| 20260503002005 | 22 | 286 | 8.0 | 22.5 | 0.00 | 0.00 | 0.00 | 53 | 1013.8 |
| 20260503001517 | 22 | 215 | 6.4 | 16.1 | 0.00 | 0.00 | 0.00 | 53 | 1013.8 |
| 20260503001006 | 22 | 277 | 4.8 | 16.1 | 0.00 | 0.00 | 0.00 | 54 | 1013.8 |
| 20260503000507 | 22 | 230 | 4.8 | 14.5 | 0.00 | 0.00 | 0.00 | 56 | 1013.9 |
| 20260503000028 | 22 | 232 | 4.8 | 16.1 | 0.00 | 0.00 | 0.00 | 54 | 1013.9 |
| 20260502235505 | 22 | 283 | 8.0 | 16.1 | 0.00 | 0.00 | 0.00 | 53 | 1013.9 |
| 20260502235006 | 22 | 267 | 4.8 | 16.1 | 0.00 | 0.00 | 0.00 | 53 | 1014.0 |
| 20260502234520 | 22 | 268 | 6.4 | 16.1 | 0.00 | 0.00 | 0.00 | 54 | 1014.1 |
| 20260502234009 | 22 | 281 | 9.7 | 20.9 | 0.00 | 0.00 | 0.00 | 54 | 1014.2 |
| 20260502233508 | 22 | 307 | 6.4 | 22.5 | 0.00 | 0.00 | 0.00 | 54 | 1014.3 |
| 20260502233020 | 23 | 306 | 8.0 | 22.5 | 0.00 | 0.00 | 0.00 | 54 | 1014.3 |
| 20260502232505 | 22 | 275 | 4.8 | 16.1 | 0.00 | 0.00 | 0.00 | 56 | 1014.4 |
| 20260502232006 | 22 | 260 | 4.8 | 16.1 | 0.00 | 0.00 | 0.00 | 55 | 1014.4 |
| 20260502231520 | 22 | 285 | 6.4 | 16.1 | 0.00 | 0.00 | 0.00 | 55 | 1014.5 |
| 20260502231008 | 23 | 250 | 8.0 | 16.1 | 0.00 | 0.00 | 0.00 | 55 | 1014.6 |
| 20260502230504 | 23 | 275 | 6.4 | 17.7 | 0.00 | 0.00 | 0.00 | 54 | 1014.7 |
| 20260502230008 | 23 | 314 | 6.4 | 17.7 | 0.00 | 0.00 | 0.00 | 54 | 1014.7 |
| 20260502225502 | 23 | 292 | 8.0 | 19.3 | 0.00 | 0.00 | 0.00 | 54 | 1014.8 |
| 20260502225006 | 23 | 312 | 8.0 | 19.3 | 0.00 | 0.00 | 0.00 | 54 | 1014.9 |
| 20260502224506 | 23 | 294 | 6.4 | 19.3 | 0.00 | 0.00 | 0.00 | 54 | 1015.0 |
| 20260502224003 | 23 | 292 | 8.0 | 19.3 | 0.00 | 0.00 | 0.00 | 55 | 1015.1 |
| 20260502223503 | 23 | 303 | 4.8 | 16.1 | 0.00 | 0.00 | 0.00 | 57 | 1015.1 |
| 20260502223010 | 23 | 282 | 6.4 | 16.1 | 0.00 | 0.00 | 0.00 | 56 | 1015.2 |
| 20260502222503 | 23 | 269 | 8.0 | 17.7 | 0.00 | 0.00 | 0.00 | 58 | 1015.3 |
| 20260502222005 | 23 | 265 | 9.7 | 17.7 | 0.00 | 0.00 | 0.00 | 54 | 1015.5 |
| 20260502221512 | 22 | 288 | 8.0 | 17.7 | 0.00 | 0.00 | 0.00 | 59 | 1015.5 |
| 20260502221004 | 22 | 187 | 8.0 | 19.3 | 0.00 | 0.00 | 0.00 | 56 | 1015.5 |
| 20260502220503 | 22 | 94 | 4.8 | 19.3 | 0.00 | 0.00 | 0.00 | 56 | 1015.5 |
| 20260502220013 | 22 | 233 | 8.0 | 17.7 | 0.00 | 0.00 | 0.00 | 57 | 1015.5 |
| 20260502215509 | 23 | 283 | 4.8 | 17.7 | 0.00 | 0.00 | 0.00 | 56 | 1015.6 |
| 20260502215005 | 22 | 244 | 6.4 | 17.7 | 0.00 | 0.00 | 0.00 | 58 | 1015.6 |
| 20260502214513 | 22 | 281 | 8.0 | 14.5 | 0.00 | 0.00 | 0.00 | 58 | 1015.7 |
| 20260502214003 | 22 | 269 | 6.4 | 17.7 | 0.00 | 0.00 | 0.00 | 56 | 1015.7 |
| 20260502213503 | 22 | 288 | 6.4 | 17.7 | 0.00 | 0.00 | 0.00 | 57 | 1015.7 |
| 20260502213010 | 22 | 297 | 11.3 | 17.7 | 0.00 | 0.00 | 0.00 | 57 | 1015.8 |
| 20260502212503 | 22 | 299 | 6.4 | 17.7 | 0.00 | 0.00 | 0.00 | 56 | 1015.8 |
| 20260502212004 | 22 | 273 | 9.7 | 17.7 | 0.00 | 0.00 | 0.00 | 56 | 1015.9 |
| 20260502211509 | 22 | 263 | 8.0 | 16.1 | 0.00 | 0.00 | 0.00 | 56 | 1015.9 |
| 20260502211004 | 22 | 249 | 4.8 | 14.5 | 0.00 | 0.00 | 0.00 | 61 | 1015.9 |
| 20260502210503 | 22 | 238 | 4.8 | 16.1 | 0.00 | 0.00 | 0.00 | 60 | 1016.0 |
| 20260502210015 | 22 | 275 | 9.7 | 16.1 | 0.00 | 0.00 | 0.00 | 58 | 1016.0 |
| 20260502205504 | 22 | 261 | 6.4 | 16.1 | 0.00 | 0.00 | 0.00 | 58 | 1016.1 |
| 20260502205007 | 21 | 148 | 6.4 | 16.1 | 0.00 | 0.00 | 0.00 | 64 | 1016.0 |
| 20260502204518 | 21 | 156 | 8.0 | 14.5 | 0.00 | 0.00 | 0.00 | 61 | 1016.1 |
| 20260502204007 | 21 | 258 | 6.4 | 16.1 | 0.00 | 0.00 | 0.00 | 61 | 1016.1 |
| 20260502203507 | 21 | 264 | 8.0 | 16.1 | 0.00 | 0.00 | 0.00 | 62 | 1016.2 |
| 20260502203004 | 21 | 264 | 4.8 | 16.1 | 0.00 | 0.00 | 0.00 | 64 | 1016.3 |
| 20260502202503 | 21 | 236 | 8.0 | 16.1 | 0.00 | 0.00 | 0.00 | 63 | 1016.3 |
| 20260502202003 | 20 | 229 | 6.4 | 12.9 | 0.00 | 0.00 | 0.00 | 63 | 1016.4 |
| 20260502201515 | 21 | 244 | 4.8 | 16.1 | 0.00 | 0.00 | 0.00 | 65 | 1016.4 |
| 20260502201004 | 20 | 256 | 8.0 | 16.1 | 0.00 | 0.00 | 0.00 | 64 | 1016.5 |
| 20260502200504 | 20 | 257 | 6.4 | 14.5 | 0.00 | 0.00 | 0.00 | 68 | 1016.5 |
| 20260502200012 | 20 | 215 | 8.0 | 14.5 | 0.00 | 0.00 | 0.00 | 68 | 1016.7 |
| 20260502195506 | 20 | 214 | 3.2 | 11.3 | 0.00 | 0.00 | 0.00 | 69 | 1016.7 |